Time;durP1;ratioP1;P1;durP2;ratioP2;P2;SDS_P1;SDS_P2;PMS_P1;PMS_P2;Temp;Humidity;BMP_temperature;BMP_pressure;BME280_temperature;BME280_humidity;BME280_pressure;Samples;Min_cycle;Max_cycle;Signal;HPM_P1;HPM_P2
2022/10/02 00:02:39;;;;;;;14.05;8.52;;;19.50;98.60;;;19.34;78.76;98164.13;5096914;28;20512;-73
2022/10/02 00:05:23;;;;;;;13.73;7.90;;;19.50;98.60;;;19.33;78.98;98169.97;5073293;28;20071;-73
2022/10/02 00:07:54;;;;;;;14.95;7.15;;;19.50;98.70;;;19.33;80.12;98173.50;5088677;28;20133;-73
2022/10/02 00:10:35;;;;;;;19.30;8.30;;;19.50;98.80;;;19.31;80.34;98175.84;5085065;28;20101;-73
2022/10/02 00:13:05;;;;;;;15.90;8.65;;;19.50;98.80;;;19.32;79.40;98171.94;5088454;28;20486;-73
2022/10/02 00:15:33;;;;;;;9.73;6.07;;;19.50;98.60;;;19.32;79.38;98182.13;5073751;28;20421;-73
2022/10/02 00:18:09;;;;;;;14.00;6.93;;;19.50;98.60;;;19.30;79.19;98182.47;5067482;28;20048;-73
2022/10/02 00:21:11;;;;;;;11.85;6.82;;;19.50;98.70;;;19.32;79.13;98179.38;5074666;28;20044;-73
2022/10/02 00:23:44;;;;;;;17.50;8.50;;;19.50;98.60;;;19.34;80.33;98172.38;5090789;28;20074;-73
2022/10/02 00:26:41;;;;;;;12.55;7.00;;;19.50;98.90;;;19.34;80.37;98174.34;5074732;28;20069;-73
2022/10/02 00:29:23;;;;;;;12.30;6.57;;;19.50;98.80;;;19.30;79.31;98177.75;5060578;28;20048;-73
2022/10/02 00:32:11;;;;;;;12.63;6.90;;;19.50;98.60;;;19.32;78.98;98182.94;5102263;28;20036;-73
2022/10/02 00:35:00;;;;;;;17.48;7.45;;;19.50;98.60;;;19.33;79.01;98178.22;5102143;28;20429;-73
2022/10/02 00:37:45;;;;;;;10.70;6.35;;;19.50;98.60;;;19.29;79.78;98172.63;5104193;28;20036;-73
2022/10/02 00:40:39;;;;;;;11.63;6.93;;;19.50;98.70;;;19.32;80.47;98176.63;5105649;28;20053;-73
2022/10/02 00:43:14;;;;;;;10.55;6.35;;;19.50;98.90;;;19.29;80.36;98173.41;5109360;27;20040;-73
2022/10/02 00:46:17;;;;;;;10.70;6.60;;;19.50;98.80;;;19.30;79.63;98168.72;5100156;28;20040;-73
2022/10/02 00:48:50;;;;;;;17.13;7.10;;;19.40;98.60;;;19.28;79.64;98182.81;5098048;28;20048;-73
2022/10/02 00:51:25;;;;;;;13.00;7.78;;;19.40;98.60;;;19.30;79.47;98194.25;5089381;28;20051;-73
2022/10/02 00:54:08;;;;;;;10.35;6.00;;;19.50;98.70;;;19.30;79.61;98201.72;5104544;28;20043;-73
2022/10/02 00:56:51;;;;;;;13.52;6.82;;;19.50;98.80;;;19.30;80.60;98197.00;5088514;28;20114;-73
2022/10/02 01:00:06;;;;;;;10.63;6.82;;;19.50;98.90;;;19.29;80.17;98205.63;5086962;28;20043;-73
2022/10/02 01:03:38;;;;;;;9.27;6.00;;;19.50;98.80;;;19.29;79.41;98206.41;5081240;28;20370;-73
2022/10/02 01:06:06;;;;;;;16.48;7.05;;;19.50;98.60;;;19.30;79.08;98201.72;5096040;28;20504;-73
2022/10/02 01:08:33;;;;;;;14.20;6.68;;;19.40;98.60;;;19.28;79.30;98212.25;5070027;28;20143;-73
2022/10/02 01:10:58;;;;;;;7.95;5.90;;;19.50;98.70;;;19.28;80.41;98215.00;5066530;28;20066;-73
2022/10/02 01:13:25;;;;;;;12.43;6.05;;;19.40;98.80;;;19.30;80.37;98219.00;5083342;28;20108;-73
2022/10/02 01:15:54;;;;;;;9.52;6.53;;;19.50;98.80;;;19.28;80.34;98217.75;5083269;28;20040;-74
2022/10/02 01:18:20;;;;;;;9.80;5.70;;;19.50;98.70;;;19.29;79.55;98214.66;5089483;28;20360;-74
2022/10/02 01:20:49;;;;;;;10.35;5.75;;;19.40;98.60;;;19.28;79.68;98232.31;5097285;28;20126;-73
2022/10/02 01:23:30;;;;;;;8.48;5.55;;;19.40;98.70;;;19.27;79.60;98216.94;5084185;28;20070;-73
2022/10/02 01:25:57;;;;;;;11.43;6.10;;;19.40;98.60;;;19.28;79.65;98224.06;5100287;28;20040;-73
2022/10/02 01:28:23;;;;;;;11.50;6.50;;;19.40;99.00;;;19.30;80.05;98230.00;5064155;27;20043;-73
2022/10/02 01:30:51;;;;;;;8.90;5.82;;;19.40;98.80;;;19.28;79.89;98226.00;5069118;28;20051;-74
2022/10/02 01:33:17;;;;;;;9.75;6.03;;;19.50;98.70;;;19.29;79.38;98233.91;5090199;28;20386;-73
2022/10/02 01:35:43;;;;;;;10.65;5.82;;;19.40;98.60;;;19.29;79.31;98225.66;5084081;28;20036;-73
2022/10/02 01:38:12;;;;;;;11.93;5.63;;;19.50;98.70;;;19.27;79.12;98236.19;5084273;28;20044;-73
2022/10/02 01:40:40;;;;;;;10.60;5.78;;;19.50;98.60;;;19.28;79.27;98235.06;5086625;28;20068;-73
2022/10/02 01:43:27;;;;;;;9.32;5.57;;;19.40;98.60;;;19.30;79.67;98240.22;5082944;28;20074;-73
2022/10/02 01:46:16;;;;;;;9.63;6.10;;;19.40;98.70;;;19.30;80.44;98243.75;5069001;28;20108;-73
2022/10/02 01:48:48;;;;;;;9.68;6.25;;;19.40;98.80;;;19.27;79.80;98244.44;5089243;28;20047;-74
2022/10/02 01:51:14;;;;;;;;;;;19.50;98.70;;;19.28;79.64;98248.00;5101005;28;20046;-73
2022/10/02 01:54:32;;;;;;;9.38;5.88;;;19.50;98.60;;;19.25;79.63;98249.50;5103156;28;20014;-73
2022/10/02 01:57:53;;;;;;;13.20;6.53;;;19.50;98.60;;;19.24;79.42;98247.91;5086829;28;20471;-74
2022/10/02 02:00:24;;;;;;;8.40;5.47;;;19.50;98.60;;;19.25;80.44;98254.19;5098426;28;20134;-73
2022/10/02 02:03:20;;;;;;;12.30;6.97;;;19.40;98.80;;;19.25;81.17;98249.50;5079558;28;20421;-74
2022/10/02 02:05:56;;;;;;;11.20;5.85;;;19.50;98.90;;;19.24;80.00;98252.59;5102269;28;20380;-74
2022/10/02 02:08:39;;;;;;;9.55;5.10;;;19.50;98.70;;;19.28;79.69;98261.75;5065845;28;20162;-73
2022/10/02 02:11:09;;;;;;;11.73;5.30;;;19.40;98.70;;;19.26;79.66;98261.31;5084308;28;20039;-73
2022/10/02 02:13:57;;;;;;;11.85;6.15;;;19.40;98.70;;;19.23;79.78;98257.31;5099213;28;20111;-73
2022/10/02 02:16:47;;;;;;;8.98;5.95;;;19.40;98.60;;;19.21;81.08;98262.34;5101345;28;20040;-73
2022/10/02 02:19:32;;;;;;;8.25;5.10;;;19.40;98.80;;;19.23;80.99;98267.47;5086755;28;20471;-73
2022/10/02 02:22:04;;;;;;;8.48;5.45;;;19.50;98.80;;;19.24;80.42;98261.63;5072958;28;20044;-73
2022/10/02 02:24:56;;;;;;;11.07;6.70;;;19.40;98.70;;;19.23;80.20;98261.97;5087155;28;20108;-74
2022/10/02 02:27:26;;;;;;;13.05;4.90;;;19.50;98.70;;;19.23;79.95;98268.28;5093183;28;20053;-73
2022/10/02 02:29:56;;;;;;;9.35;4.95;;;19.40;98.60;;;19.25;79.42;98265.97;5051940;28;20044;-73
2022/10/02 02:32:26;;;;;;;6.53;5.28;;;19.50;98.60;;;19.25;80.73;98259.69;5074857;28;20071;-73
2022/10/02 02:34:57;;;;;;;9.52;5.18;;;19.40;99.10;;;19.26;81.29;98272.31;5068076;28;20051;-73
2022/10/02 02:37:24;;;;;;;;;;;19.50;98.90;;;19.23;80.39;98271.03;5082904;28;20036;-74
2022/10/02 02:40:03;;;;;;;8.88;5.18;;;19.40;98.70;;;19.24;80.16;98278.13;5066958;28;20283;-73
2022/10/02 02:42:32;;;;;;;8.80;5.30;;;19.40;98.70;;;19.23;79.88;98278.47;5087764;28;20036;-74
2022/10/02 02:45:02;;;;;;;11.20;5.93;;;19.40;98.60;;;19.23;79.95;98273.78;5082600;28;20049;-74
2022/10/02 02:47:53;;;;;;;8.70;5.13;;;19.40;98.60;;;19.22;80.82;98277.69;5090264;28;20040;-74
2022/10/02 02:50:48;;;;;;;10.48;5.03;;;19.40;98.80;;;19.22;81.08;98283.19;5073198;28;20040;-73
2022/10/02 02:53:19;;;;;;;6.78;4.10;;;19.40;98.80;;;19.24;80.40;98280.88;5087486;28;20071;-73
2022/10/02 02:55:58;;;;;;;6.83;5.07;;;19.50;98.70;;;19.23;80.03;98284.78;5085160;28;20043;-73
2022/10/02 02:58:29;;;;;;;9.50;5.18;;;19.40;98.60;;;19.23;79.88;98284.78;5069834;28;20717;-74
2022/10/02 03:00:55;;;;;;;8.18;4.68;;;19.40;98.60;;;19.24;79.84;98286.38;5099637;28;20403;-74
2022/10/02 03:03:21;;;;;;;8.13;5.22;;;19.40;98.60;;;19.21;80.73;98283.50;5061580;28;20040;-74
2022/10/02 03:05:50;;;;;;;7.82;4.78;;;19.40;98.80;;;19.22;81.42;98290.63;5062729;28;20039;-74
2022/10/02 03:08:30;;;;;;;7.38;4.78;;;19.40;98.80;;;19.21;81.16;98289.84;5086519;28;20435;-74
2022/10/02 03:11:17;;;;;;;6.78;4.55;;;19.40;98.80;;;19.21;80.44;98298.06;5072938;28;20150;-74
2022/10/02 03:14:23;;;;;;;6.53;4.65;;;19.40;98.60;;;19.23;80.08;98298.53;5091001;28;20459;-74
2022/10/02 03:17:35;;;;;;;7.70;4.55;;;19.40;98.60;;;19.22;79.58;98291.41;5105994;28;20122;-74
2022/10/02 03:20:13;;;;;;;7.57;4.90;;;19.40;98.50;;;19.21;80.63;98292.59;5103750;28;20035;-73
2022/10/02 03:23:23;;;;;;;10.60;6.07;;;19.40;98.70;;;19.22;80.66;98298.88;5107878;28;20036;-74
2022/10/02 03:26:03;;;;;;;7.38;4.28;;;19.40;98.60;;;19.19;80.47;98299.56;5110009;28;20048;-74
2022/10/02 03:28:45;;;;;;;9.45;4.82;;;19.40;98.60;;;19.21;80.07;98300.81;5085727;28;20032;-74
2022/10/02 03:31:11;;;;;;;5.68;3.90;;;19.40;98.60;;;19.21;79.78;98300.81;5086105;28;20032;-74
2022/10/02 03:33:37;;;;;;;9.55;5.28;;;19.40;98.60;;;19.21;79.57;98305.50;5073368;28;20044;-74
2022/10/02 03:36:03;;;;;;;7.60;4.75;;;19.40;98.50;;;19.20;80.21;98306.66;5086897;28;20040;-74
2022/10/02 03:38:30;;;;;;;7.28;4.72;;;19.40;98.70;;;19.20;80.19;98312.16;5058672;28;20052;-74
2022/10/02 03:40:57;;;;;;;6.13;4.43;;;19.40;98.70;;;19.18;80.22;98323.47;5089103;28;20045;-74
2022/10/02 03:43:25;;;;;;;9.63;4.85;;;19.40;99.00;;;19.18;80.06;98315.22;5103859;28;20412;-74
2022/10/02 03:45:51;;;;;;;7.18;4.20;;;19.40;98.50;;;19.20;79.80;98318.44;5086952;28;20546;-74
2022/10/02 03:48:17;;;;;;;4.72;3.50;;;19.40;98.50;;;19.17;79.81;98324.63;5108379;28;20084;-74
2022/10/02 03:50:43;;;;;;;7.60;3.75;;;19.40;98.50;;;19.19;79.62;98330.59;5103294;28;20052;-74
2022/10/02 03:53:21;;;;;;;6.93;4.30;;;19.40;98.50;;;19.19;78.88;98327.84;5101751;28;20036;-74
2022/10/02 03:55:57;;;;;;;8.55;4.93;;;19.40;98.50;;;19.20;77.71;98329.44;5053254;28;20048;-74
2022/10/02 03:58:23;;;;;;;3.40;3.10;;;19.30;98.30;;;19.22;76.79;98337.38;5090660;28;20044;-74
2022/10/02 04:00:57;;;;;;;4.47;3.33;;;19.30;98.20;;;19.17;76.51;98341.13;5082439;28;20052;-74
2022/10/02 04:04:23;;;;;;;5.63;3.55;;;19.30;98.20;;;19.18;77.72;98336.44;5074221;28;20044;-74
2022/10/02 04:06:59;;;;;;;4.28;3.28;;;19.30;98.40;;;19.18;78.48;98344.69;5101714;28;20055;-73
2022/10/02 04:09:29;;;;;;;5.07;3.25;;;19.30;98.50;;;19.16;77.48;98342.28;5088190;28;20040;-73
2022/10/02 04:12:22;;;;;;;5.40;2.80;;;19.40;98.30;;;19.18;76.37;98337.22;5101505;28;20693;-74
2022/10/02 04:15:08;;;;;;;5.78;3.33;;;19.40;98.10;;;19.19;75.92;98346.31;5090018;28;20043;-74
2022/10/02 04:17:46;;;;;;;4.55;2.55;;;19.30;98.10;;;19.18;75.28;98353.72;5077868;28;20036;-74
2022/10/02 04:20:54;;;;;;;4.03;2.90;;;19.30;98.10;;;19.19;77.02;98360.06;5099447;28;20055;-74
2022/10/02 04:23:28;;;;;;;5.50;2.92;;;19.30;98.40;;;19.17;77.75;98365.88;5092181;28;20036;-74
2022/10/02 04:26:20;;;;;;;2.63;2.22;;;19.40;98.50;;;19.17;76.55;98370.59;5058892;28;20458;-74
2022/10/02 04:28:52;;;;;;;3.03;2.58;;;19.30;98.10;;;19.17;75.61;98374.13;5078984;28;20051;-74
2022/10/02 04:31:18;;;;;;;;;;;19.30;98.10;;;19.19;74.81;98371.06;5084061;28;20044;-74
2022/10/02 04:33:43;;;;;;;3.10;2.45;;;19.30;98.10;;;19.18;74.65;98369.44;5107440;28;19924;-74
2022/10/02 04:36:38;;;;;;;5.57;3.03;;;19.30;98.10;;;19.16;76.15;98377.19;5092701;28;20193;-74
2022/10/02 04:39:36;;;;;;;4.35;2.90;;;19.30;98.20;;;19.13;76.46;98378.69;5090109;28;20059;-74
2022/10/02 04:42:25;;;;;;;3.67;2.60;;;19.30;98.10;;;19.16;75.60;98378.03;5099736;28;20160;-74
2022/10/02 04:45:27;;;;;;;3.92;2.90;;;19.30;98.10;;;19.16;74.93;98394.53;5104348;28;20044;-74
2022/10/02 04:48:15;;;;;;;2.38;1.90;;;19.30;98.10;;;19.14;74.31;98402.31;5105135;28;20093;-74
2022/10/02 04:50:55;;;;;;;3.05;2.47;;;19.30;98.00;;;19.15;74.16;98403.91;5102123;28;20529;-74
2022/10/02 04:53:46;;;;;;;2.63;2.33;;;19.20;98.00;;;19.16;74.89;98410.19;5088757;28;20031;-74
2022/10/02 04:56:44;;;;;;;5.90;3.43;;;19.30;98.10;;;19.14;75.16;98407.00;5099993;28;20101;-74
2022/10/02 04:59:38;;;;;;;3.80;2.60;;;19.30;98.10;;;19.14;74.40;98416.06;5077741;28;20053;-74
2022/10/02 05:02:31;;;;;;;2.70;2.35;;;19.30;97.90;;;19.16;73.92;98418.44;5104023;28;20052;-74
2022/10/02 05:05:03;;;;;;;2.45;1.92;;;19.30;97.80;;;19.16;73.14;98416.53;5087239;28;20046;-73
2022/10/02 05:07:54;;;;;;;4.38;2.50;;;19.30;97.80;;;19.11;73.58;98430.47;5095392;28;20308;-77
2022/10/02 05:11:21;;;;;;;2.88;2.25;;;19.20;97.80;;;19.11;75.21;98426.91;5096833;28;20032;-77
2022/10/02 05:14:01;;;;;;;2.60;2.40;;;19.30;98.10;;;19.12;74.61;98434.81;5057265;28;20049;-74
2022/10/02 05:16:36;;;;;;;3.13;2.05;;;19.30;98.10;;;19.14;73.64;98429.81;5031058;28;20047;-74
2022/10/02 05:19:24;;;;;;;2.05;1.85;;;19.30;97.80;;;19.17;72.76;98436.56;5076329;28;20487;-74
2022/10/02 05:22:42;;;;;;;2.65;1.83;;;19.30;97.80;;;19.18;72.02;98436.22;5099469;28;20048;-74
2022/10/02 05:25:57;;;;;;;3.58;2.85;;;19.20;97.70;;;19.14;73.68;98435.31;5089257;28;20155;-74
2022/10/02 05:28:35;;;;;;;3.15;2.08;;;19.30;97.90;;;19.15;73.87;98436.88;5100697;27;20523;-74
2022/10/02 05:31:11;;;;;;;3.13;2.83;;;19.30;97.90;;;19.17;73.18;98447.56;5100803;28;20075;-74
2022/10/02 05:33:53;;;;;;;2.95;2.63;;;19.30;97.80;;;19.19;72.16;98448.81;5102618;28;20035;-74
2022/10/02 05:36:32;;;;;;;3.92;2.35;;;19.30;97.60;;;19.15;72.38;98450.63;5083469;28;20035;-74
2022/10/02 05:39:07;;;;;;;3.10;2.58;;;19.30;97.60;;;19.18;71.64;98454.66;5099088;28;20049;-74
2022/10/02 05:41:52;;;;;;;10.88;3.42;;;19.30;97.50;;;19.17;72.82;98455.81;5091942;28;20047;-74
2022/10/02 05:44:23;;;;;;;10.23;4.07;;;19.30;97.80;;;19.15;73.07;98464.38;5086443;28;20050;-74
2022/10/02 05:47:00;;;;;;;6.57;3.67;;;19.40;97.80;;;19.18;72.62;98451.91;5095518;28;20055;-74
2022/10/02 05:50:02;;;;;;;6.05;3.60;;;19.30;97.70;;;19.14;72.10;98464.75;5065668;28;20036;-74
2022/10/02 05:52:49;;;;;;;6.15;3.33;;;19.30;97.60;;;19.18;71.97;98469.19;5080885;28;20067;-74
2022/10/02 05:55:31;;;;;;;7.80;3.67;;;19.30;97.60;;;19.17;72.28;98470.34;5083815;28;20042;-73
2022/10/02 05:58:06;;;;;;;11.77;4.90;;;19.30;97.60;;;19.13;72.41;98472.16;5094661;28;20047;-73
2022/10/02 06:00:45;;;;;;;14.65;6.43;;;19.30;97.60;;;19.14;72.50;98473.00;5097802;28;20054;-73
2022/10/02 06:03:32;;;;;;;16.70;7.28;;;19.30;97.60;;;19.18;73.00;98482.16;5097938;28;20047;-73
2022/10/02 06:06:14;;;;;;;24.17;9.43;;;19.30;97.80;;;19.19;73.33;98486.53;5094985;27;20400;-73
2022/10/02 06:08:47;;;;;;;23.02;8.18;;;19.30;97.80;;;19.17;73.19;98484.09;5099900;28;20539;-73
2022/10/02 06:11:29;;;;;;;18.95;8.85;;;19.30;97.80;;;19.19;73.00;98487.31;5095049;28;20407;-73
2022/10/02 06:14:36;;;;;;;23.90;8.75;;;19.30;97.70;;;19.25;72.22;98493.41;5071964;28;20039;-73
2022/10/02 06:17:37;;;;;;;23.70;7.90;;;19.40;97.70;;;19.24;72.54;98494.56;5099946;27;20056;-73
2022/10/02 06:20:23;;;;;;;29.42;11.52;;;19.40;97.70;;;19.26;73.50;98489.53;5080451;28;20094;-74
2022/10/02 06:23:13;;;;;;;28.02;11.93;;;19.40;98.00;;;19.29;73.16;98497.91;5068674;28;20040;-73
2022/10/02 06:25:57;;;;;;;31.33;11.15;;;19.40;97.90;;;19.30;72.68;98512.44;5097582;28;20193;-73
2022/10/02 06:28:52;;;;;;;21.20;9.75;;;19.40;97.80;;;19.32;72.27;98507.41;5083462;28;20389;-73
2022/10/02 06:31:29;;;;;;;22.02;9.65;;;19.40;97.70;;;19.35;71.98;98506.72;5089794;28;20540;-73
2022/10/02 06:33:56;;;;;;;22.38;10.68;;;19.40;97.70;;;19.35;71.99;98514.97;5096446;28;20055;-73
2022/10/02 06:36:25;;;;;;;31.38;12.02;;;19.50;97.70;;;19.36;72.24;98507.53;5079090;28;20040;-74
2022/10/02 06:39:15;;;;;;;18.05;8.57;;;19.50;98.00;;;19.28;71.68;98512.81;5092689;28;20121;-73
2022/10/02 06:41:58;;;;;;;23.85;8.77;;;19.40;97.50;;;19.23;70.77;98513.00;5097198;28;20114;-73
2022/10/02 06:44:46;;;;;;;18.10;7.05;;;19.50;97.40;;;19.18;70.62;98515.94;5081964;28;20181;-73
2022/10/02 06:47:34;;;;;;;12.90;6.63;;;19.40;97.20;;;19.17;69.68;98519.03;5098270;28;20491;-74
2022/10/02 06:50:26;;;;;;;11.60;5.30;;;19.40;97.00;;;19.16;69.14;98520.16;5100329;28;20040;-73
2022/10/02 06:53:17;;;;;;;13.27;5.53;;;19.40;96.80;;;19.19;68.14;98528.56;5102228;28;20040;-73
2022/10/02 06:55:49;;;;;;;10.57;4.22;;;19.40;96.70;;;19.20;67.62;98538.41;5096306;28;20449;-75
2022/10/02 06:58:56;;;;;;;7.57;4.13;;;19.40;96.60;;;19.20;66.83;98529.38;5102518;28;20501;-74
2022/10/02 07:01:56;;;;;;;5.53;3.42;;;19.40;96.50;;;19.26;65.72;98545.34;5081182;28;20064;-75
2022/10/02 07:05:06;;;;;;;10.07;4.07;;;19.40;96.30;;;19.32;65.45;98545.13;5105126;28;20035;-74
2022/10/02 07:08:01;;;;;;;11.23;4.18;;;19.40;96.30;;;19.29;65.93;98550.16;5093747;28;20482;-74
2022/10/02 07:11:02;;;;;;;10.25;5.55;;;19.40;96.40;;;19.38;66.13;98552.81;5099329;28;20077;-76
2022/10/02 07:13:34;;;;;;;9.18;4.97;;;19.50;96.60;;;19.39;66.39;98559.13;5091929;28;20657;-77
2022/10/02 07:16:09;;;;;;;8.50;4.50;;;19.50;96.60;;;19.40;65.95;98558.78;5097068;28;20121;-74
2022/10/02 07:19:25;;;;;;;10.70;5.07;;;19.50;96.60;;;19.44;66.09;98553.44;5098643;28;20043;-74
2022/10/02 07:22:23;;;;;;;11.57;5.53;;;19.50;96.50;;;19.52;65.37;98564.34;5103977;28;20051;-75
2022/10/02 07:25:12;;;;;;;13.82;5.80;;;19.50;96.50;;;19.54;65.92;98561.25;5099910;28;20044;-75
2022/10/02 07:28:09;;;;;;;10.05;4.70;;;19.60;96.70;;;19.53;65.76;98551.38;5098349;28;20036;-74
2022/10/02 07:30:59;;;;;;;12.35;5.38;;;19.60;96.60;;;19.55;65.70;98553.78;5092390;28;20074;-74
2022/10/02 07:33:45;;;;;;;7.00;4.55;;;19.70;96.60;;;19.59;65.57;98550.03;5068260;28;20053;-73
2022/10/02 07:36:44;;;;;;;14.40;5.53;;;19.60;96.60;;;19.59;65.25;98552.78;5102596;28;20822;-73
2022/10/02 07:39:56;;;;;;;14.65;4.85;;;19.70;96.50;;;19.57;65.62;98543.25;5097634;28;20052;-76
2022/10/02 07:42:53;;;;;;;14.30;5.28;;;19.60;96.60;;;19.54;66.03;98544.75;5063880;28;20105;-74
2022/10/02 07:45:41;;;;;;;21.60;7.07;;;19.60;96.60;;;19.55;66.04;98554.59;5099697;28;20069;-74
2022/10/02 07:48:15;;;;;;;13.13;5.32;;;19.60;96.60;;;19.61;65.46;98552.44;5057588;28;20040;-74
2022/10/02 07:51:48;;;;;;;13.68;5.18;;;19.70;96.60;;;19.68;65.08;98556.25;5100308;28;20031;-74
2022/10/02 07:54:48;;;;;;;17.88;5.97;;;19.70;96.50;;;19.72;64.84;98551.69;5091978;28;20052;-77
2022/10/02 07:57:37;;;;;;;20.02;6.18;;;19.70;96.50;;;19.75;64.97;98546.66;5105940;28;20048;-74
2022/10/02 08:00:16;;;;;;;14.80;6.85;;;19.70;96.60;;;19.79;64.76;98553.88;5099116;28;20599;-74
2022/10/02 08:03:14;;;;;;;11.93;6.15;;;19.80;96.60;;;19.78;64.36;98548.72;5052660;28;20044;-74
2022/10/02 08:05:53;;;;;;;11.85;5.25;;;19.80;96.50;;;19.83;64.19;98543.00;5087007;28;20471;-74
2022/10/02 08:08:28;;;;;;;11.98;5.65;;;19.80;96.50;;;19.90;63.78;98546.00;5090495;28;20032;-75
2022/10/02 08:11:50;;;;;;;15.13;5.35;;;19.80;96.40;;;19.83;64.05;98537.50;5099023;28;20055;-75
2022/10/02 08:14:21;;;;;;;10.60;5.22;;;19.80;96.40;;;19.82;64.33;98536.72;5099127;28;20056;-74
2022/10/02 08:16:52;;;;;;;16.73;5.90;;;19.80;96.50;;;19.83;64.40;98532.00;5086269;28;20075;-76
2022/10/02 08:19:35;;;;;;;13.68;5.47;;;19.90;96.50;;;19.82;64.29;98536.72;5071034;28;20075;-74
2022/10/02 08:22:27;;;;;;;11.85;5.55;;;19.90;96.80;;;19.83;64.31;98543.81;5081918;28;20389;-74
2022/10/02 08:25:04;;;;;;;11.77;5.95;;;19.90;96.40;;;19.87;63.84;98544.75;5067841;28;20468;-75
2022/10/02 08:28:04;;;;;;;7.60;4.40;;;19.90;96.30;;;19.86;64.01;98547.81;5082926;28;20066;-74
2022/10/02 08:30:30;;;;;;;12.05;5.57;;;19.90;96.30;;;19.88;63.67;98537.28;5098228;28;20048;-74
2022/10/02 08:32:56;;;;;;;11.48;5.70;;;19.90;96.40;;;19.97;63.86;98539.91;5094885;28;20090;-74
2022/10/02 08:35:27;;;;;;;12.27;5.97;;;20.00;96.40;;;20.02;63.16;98539.69;5063928;28;20077;-74
2022/10/02 08:38:04;;;;;;;14.57;6.47;;;20.00;96.30;;;19.98;62.98;98538.78;5064341;28;20048;-74
2022/10/02 08:40:54;;;;;;;10.13;5.25;;;20.00;96.30;;;19.91;63.69;98533.84;5095810;28;20123;-74
2022/10/02 08:44:05;;;;;;;11.35;5.68;;;20.00;96.30;;;19.95;63.28;98529.28;5097309;28;20054;-74
2022/10/02 08:46:57;;;;;;;13.52;6.35;;;20.00;96.30;;;19.94;63.71;98535.91;5100825;28;20068;-74
2022/10/02 08:49:56;;;;;;;16.90;6.63;;;20.00;96.40;;;19.97;63.96;98535.22;5094971;28;20561;-74
2022/10/02 08:52:58;;;;;;;17.08;6.03;;;20.00;96.50;;;19.93;63.43;98529.59;5097710;28;20044;-74
2022/10/02 08:55:53;;;;;;;13.55;5.68;;;20.00;96.30;;;19.89;63.36;98536.13;5095205;28;20779;-74
2022/10/02 08:58:53;;;;;;;10.25;5.85;;;20.00;96.20;;;20.01;63.06;98529.84;5094728;28;20050;-74
2022/10/02 09:02:18;;;;;;;12.73;6.50;;;20.10;96.30;;;20.08;63.32;98536.38;5113651;27;20142;-75
2022/10/02 09:05:17;;;;;;;8.55;5.30;;;20.10;96.30;;;20.04;63.51;98529.94;5096961;28;20066;-74
2022/10/02 09:08:08;;;;;;;9.40;5.07;;;20.10;96.40;;;20.04;63.25;98521.69;5098413;28;20056;-75
2022/10/02 09:11:07;;;;;;;12.43;5.90;;;20.10;96.30;;;19.96;63.42;98514.34;5105539;28;20206;-75
2022/10/02 09:14:09;;;;;;;13.35;5.95;;;20.10;96.20;;;20.00;63.17;98520.78;5104635;28;20530;-77
2022/10/02 09:16:50;;;;;;;11.47;5.10;;;20.10;96.20;;;20.06;63.10;98529.63;5088081;28;20108;-76
2022/10/02 09:19:44;;;;;;;15.52;5.93;;;20.10;96.20;;;20.14;62.94;98529.50;5099317;28;20046;-79
2022/10/02 09:22:34;;;;;;;14.10;5.88;;;20.20;96.30;;;20.13;63.24;98519.63;5101324;28;20035;-76
2022/10/02 09:25:19;;;;;;;8.90;4.85;;;20.20;96.40;;;20.12;62.75;98518.03;5097418;28;20115;-77
2022/10/02 09:28:29;;;;;;;15.02;5.72;;;20.20;96.20;;;20.04;63.18;98512.63;5097546;28;20044;-77
2022/10/02 09:31:21;;;;;;;13.38;5.60;;;20.20;96.20;;;20.04;63.27;98513.44;5098100;28;20036;-76
2022/10/02 09:34:41;;;;;;;9.18;5.50;;;20.20;96.20;;;20.10;63.23;98525.03;5099700;28;20050;-76
2022/10/02 09:37:34;;;;;;;11.25;5.68;;;20.20;96.20;;;20.05;63.73;98526.06;5068884;28;20162;-75
2022/10/02 09:40:17;;;;;;;13.52;5.50;;;20.20;96.30;;;20.04;63.39;98526.41;5096689;28;20388;-75
2022/10/02 09:43:30;;;;;;;8.77;5.55;;;20.20;96.20;;;20.12;62.67;98515.28;5097527;28;20044;-75
2022/10/02 09:46:21;;;;;;;14.57;6.43;;;20.20;96.10;;;20.18;62.54;98504.84;5087229;28;20112;-75
2022/10/02 09:49:07;;;;;;;15.38;6.07;;;20.20;96.00;;;20.14;62.50;98503.91;5085384;28;20039;-75
2022/10/02 09:52:17;;;;;;;11.05;5.78;;;20.30;96.10;;;20.15;62.85;98489.00;5094567;28;20479;-75
2022/10/02 09:55:14;;;;;;;12.85;6.03;;;20.30;96.20;;;20.14;63.20;98485.44;5102255;28;20130;-75
2022/10/02 09:58:10;;;;;;;11.88;5.75;;;20.30;96.20;;;20.21;62.39;98487.63;5098167;28;20051;-75
2022/10/02 10:01:04;;;;;;;11.60;5.75;;;20.30;96.10;;;20.10;62.80;98489.25;5098239;28;20188;-75
2022/10/02 10:03:45;;;;;;;13.82;5.30;;;20.30;96.10;;;20.08;62.60;98488.78;5100388;28;20040;-75
2022/10/02 10:06:47;;;;;;;9.70;4.80;;;20.30;96.00;;;20.19;62.58;98489.13;5095528;28;20130;-75
2022/10/02 10:09:22;;;;;;;12.65;5.50;;;20.30;96.00;;;20.22;62.61;98482.91;5094660;28;20074;-75
2022/10/02 10:12:07;;;;;;;11.70;6.32;;;20.30;96.10;;;20.20;62.56;98464.00;5096722;28;20078;-75
2022/10/02 10:15:18;;;;;;;10.32;5.53;;;20.30;96.10;;;20.11;62.45;98477.06;5096232;28;20407;-74
2022/10/02 10:18:25;;;;;;;11.18;5.38;;;20.30;95.90;;;20.17;62.33;98483.94;5096647;28;20167;-75
2022/10/02 10:21:47;;;;;;;11.07;4.93;;;20.30;95.90;;;20.28;61.58;98476.03;5088028;28;20059;-75
2022/10/02 10:25:09;;;;;;;11.07;5.28;;;20.40;95.90;;;20.32;61.84;98488.75;5054856;28;20135;-75
2022/10/02 10:28:05;;;;;;;7.88;4.18;;;20.40;95.90;;;20.25;61.64;98479.47;5090542;28;20044;-75
2022/10/02 10:30:50;;;;;;;12.10;4.90;;;20.40;95.90;;;20.04;62.23;98476.84;5099167;28;20648;-75
2022/10/02 10:34:03;;;;;;;8.77;4.13;;;20.30;95.80;;;19.94;62.36;98473.38;5099135;28;20128;-75
2022/10/02 10:40:24;;;;;;;6.78;3.95;;;20.30;95.70;;;19.87;62.17;98477.84;5092543;28;20551;-75
2022/10/02 10:43:06;;;;;;;5.97;3.47;;;20.30;95.50;;;19.94;61.49;98478.09;5098801;28;20055;-74
2022/10/02 10:45:57;;;;;;;;;;;20.30;95.40;;;20.01;61.25;98469.28;5094647;28;20401;-74
2022/10/02 10:48:53;;;;;;;6.47;2.70;;;20.30;95.30;;;20.00;60.62;98473.97;5098715;28;20278;-75
2022/10/02 10:51:33;;;;;;;4.75;2.58;;;20.30;95.30;;;20.00;60.34;98467.66;5099137;28;20047;-74
2022/10/02 10:54:26;;;;;;;4.90;2.72;;;20.30;95.10;;;20.02;59.90;98463.41;5083489;28;20044;-74
2022/10/02 10:57:12;;;;;;;6.25;2.92;;;20.30;95.10;;;20.02;60.10;98460.66;5090564;28;20046;-74
2022/10/02 10:59:50;;;;;;;7.70;2.17;;;20.30;95.00;;;20.04;59.75;98461.13;5100712;28;20716;-76
2022/10/02 11:02:53;;;;;;;6.38;2.25;;;20.30;94.90;;;20.07;59.48;98465.13;5102385;28;20052;-75
2022/10/02 11:06:21;;;;;;;4.82;1.98;;;20.40;94.80;;;20.02;59.24;98463.41;5096797;28;20472;-76
2022/10/02 11:09:14;;;;;;;5.57;2.30;;;20.40;94.70;;;20.01;59.15;98472.03;5068163;28;20116;-74
2022/10/02 11:11:54;;;;;;;6.20;2.03;;;20.40;94.70;;;20.04;58.85;98465.81;5096400;28;20547;-75
2022/10/02 11:14:27;;;;;;;2.80;1.67;;;20.40;94.60;;;20.05;58.78;98461.91;5099709;28;20071;-74
2022/10/02 11:17:52;;;;;;;2.15;1.52;;;20.40;94.50;;;20.04;58.51;98465.81;5093916;28;20111;-74
2022/10/02 11:20:49;;;;;;;5.38;2.30;;;20.30;94.40;;;19.97;58.35;98458.13;5038129;28;20055;-75
2022/10/02 11:23:47;;;;;;;2.80;1.45;;;20.40;94.30;;;20.01;58.25;98461.81;5093805;28;20402;-73
2022/10/02 11:26:51;;;;;;;2.13;1.40;;;20.40;94.30;;;19.98;57.91;98462.50;5102069;28;20046;-73
2022/10/02 11:29:54;;;;;;;4.50;1.60;;;20.40;94.20;;;19.97;57.83;98455.38;5067978;28;20126;-75
2022/10/02 11:32:55;;;;;;;5.70;1.80;;;20.40;94.20;;;20.07;57.55;98451.38;5105255;28;20044;-74
2022/10/02 11:35:27;;;;;;;3.50;1.92;;;20.40;94.10;;;20.11;57.06;98450.34;5100982;28;20470;-74
2022/10/02 11:38:11;;;;;;;7.22;2.28;;;20.40;94.10;;;20.07;57.21;98443.09;5102951;28;20051;-73
2022/10/02 11:41:06;;;;;;;2.20;1.83;;;20.40;94.00;;;20.04;57.09;98439.09;5096982;28;20036;-73
2022/10/02 11:43:58;;;;;;;2.25;1.15;;;20.40;93.90;;;20.01;56.98;98444.50;5101719;28;20043;-73